sensor_id;sensor_type;location;lat;lon;timestamp;P1;durP1;ratioP1;P2;durP2;ratioP2
34673;SDS011;20879;55.668;37.858;2024-03-08T00:01:07;4.78;;;2.58;;
34673;SDS011;20879;55.668;37.858;2024-03-08T00:06:23;5.57;;;2.43;;
34673;SDS011;20879;55.668;37.858;2024-03-08T00:11:35;5.10;;;2.95;;
34673;SDS011;20879;55.668;37.858;2024-03-08T00:16:50;3.10;;;2.00;;
34673;SDS011;20879;55.668;37.858;2024-03-08T00:22:01;6.57;;;2.72;;
34673;SDS011;20879;55.668;37.858;2024-03-08T00:27:12;6.43;;;2.75;;
34673;SDS011;20879;55.668;37.858;2024-03-08T00:32:40;3.97;;;2.28;;
34673;SDS011;20879;55.668;37.858;2024-03-08T00:37:55;5.22;;;2.80;;
34673;SDS011;20879;55.668;37.858;2024-03-08T00:43:02;6.65;;;2.78;;
34673;SDS011;20879;55.668;37.858;2024-03-08T00:48:14;5.22;;;3.00;;
34673;SDS011;20879;55.668;37.858;2024-03-08T00:53:26;5.13;;;3.08;;
34673;SDS011;20879;55.668;37.858;2024-03-08T00:58:35;5.43;;;3.28;;
34673;SDS011;20879;55.668;37.858;2024-03-08T01:03:46;4.20;;;2.65;;
34673;SDS011;20879;55.668;37.858;2024-03-08T01:09:02;4.85;;;2.63;;
34673;SDS011;20879;55.668;37.858;2024-03-08T01:14:09;4.90;;;2.85;;
34673;SDS011;20879;55.668;37.858;2024-03-08T01:19:18;5.97;;;3.30;;
34673;SDS011;20879;55.668;37.858;2024-03-08T01:24:29;6.10;;;3.17;;
34673;SDS011;20879;55.668;37.858;2024-03-08T01:29:41;6.10;;;3.42;;
34673;SDS011;20879;55.668;37.858;2024-03-08T01:34:49;5.25;;;3.03;;
34673;SDS011;20879;55.668;37.858;2024-03-08T01:39:58;5.97;;;3.65;;
34673;SDS011;20879;55.668;37.858;2024-03-08T01:45:13;4.07;;;2.80;;
34673;SDS011;20879;55.668;37.858;2024-03-08T01:50:20;4.47;;;2.75;;
34673;SDS011;20879;55.668;37.858;2024-03-08T01:55:29;4.60;;;2.88;;
34673;SDS011;20879;55.668;37.858;2024-03-08T02:00:39;4.93;;;3.13;;
34673;SDS011;20879;55.668;37.858;2024-03-08T02:05:48;3.03;;;2.53;;
34673;SDS011;20879;55.668;37.858;2024-03-08T02:11:00;5.18;;;2.80;;
34673;SDS011;20879;55.668;37.858;2024-03-08T02:16:05;5.57;;;3.08;;
34673;SDS011;20879;55.668;37.858;2024-03-08T02:21:20;4.13;;;2.58;;
34673;SDS011;20879;55.668;37.858;2024-03-08T02:26:26;5.07;;;2.85;;
34673;SDS011;20879;55.668;37.858;2024-03-08T02:31:33;4.70;;;3.00;;
34673;SDS011;20879;55.668;37.858;2024-03-08T02:36:42;5.22;;;2.60;;
34673;SDS011;20879;55.668;37.858;2024-03-08T02:41:51;4.35;;;2.55;;
34673;SDS011;20879;55.668;37.858;2024-03-08T02:47:01;3.42;;;2.17;;
34673;SDS011;20879;55.668;37.858;2024-03-08T02:52:15;4.10;;;2.67;;
34673;SDS011;20879;55.668;37.858;2024-03-08T02:57:24;5.90;;;2.80;;
34673;SDS011;20879;55.668;37.858;2024-03-08T03:02:33;5.32;;;2.80;;
34673;SDS011;20879;55.668;37.858;2024-03-08T03:07:45;5.28;;;3.00;;
34673;SDS011;20879;55.668;37.858;2024-03-08T03:12:59;5.88;;;3.10;;
34673;SDS011;20879;55.668;37.858;2024-03-08T03:18:08;4.18;;;2.47;;
34673;SDS011;20879;55.668;37.858;2024-03-08T03:23:16;5.93;;;2.13;;
34673;SDS011;20879;55.668;37.858;2024-03-08T03:28:25;6.35;;;3.40;;
34673;SDS011;20879;55.668;37.858;2024-03-08T03:33:32;3.72;;;2.28;;
34673;SDS011;20879;55.668;37.858;2024-03-08T03:38:44;6.20;;;3.15;;
34673;SDS011;20879;55.668;37.858;2024-03-08T03:43:54;5.47;;;2.80;;
34673;SDS011;20879;55.668;37.858;2024-03-08T03:49:06;4.57;;;2.20;;
34673;SDS011;20879;55.668;37.858;2024-03-08T03:54:29;5.32;;;2.90;;
34673;SDS011;20879;55.668;37.858;2024-03-08T03:59:41;3.80;;;2.70;;
34673;SDS011;20879;55.668;37.858;2024-03-08T04:05:00;5.45;;;3.17;;
34673;SDS011;20879;55.668;37.858;2024-03-08T04:10:35;6.22;;;3.05;;
34673;SDS011;20879;55.668;37.858;2024-03-08T04:15:46;7.70;;;3.22;;
34673;SDS011;20879;55.668;37.858;2024-03-08T04:21:02;4.45;;;2.70;;
34673;SDS011;20879;55.668;37.858;2024-03-08T04:26:26;4.70;;;3.03;;
34673;SDS011;20879;55.668;37.858;2024-03-08T04:31:46;4.85;;;2.80;;
34673;SDS011;20879;55.668;37.858;2024-03-08T04:36:53;5.55;;;3.38;;
34673;SDS011;20879;55.668;37.858;2024-03-08T04:42:05;7.93;;;4.57;;
34673;SDS011;20879;55.668;37.858;2024-03-08T04:47:15;3.95;;;2.97;;
34673;SDS011;20879;55.668;37.858;2024-03-08T04:52:20;7.43;;;4.00;;
34673;SDS011;20879;55.668;37.858;2024-03-08T04:57:28;8.93;;;4.03;;
34673;SDS011;20879;55.668;37.858;2024-03-08T05:02:40;5.72;;;4.10;;
34673;SDS011;20879;55.668;37.858;2024-03-08T05:07:48;8.32;;;4.50;;
34673;SDS011;20879;55.668;37.858;2024-03-08T05:18:06;8.15;;;3.78;;
34673;SDS011;20879;55.668;37.858;2024-03-08T05:23:22;7.90;;;4.40;;
34673;SDS011;20879;55.668;37.858;2024-03-08T05:28:38;6.95;;;3.85;;
34673;SDS011;20879;55.668;37.858;2024-03-08T05:33:51;9.93;;;5.43;;
34673;SDS011;20879;55.668;37.858;2024-03-08T05:38:57;8.93;;;4.65;;
34673;SDS011;20879;55.668;37.858;2024-03-08T05:44:10;9.57;;;4.88;;
34673;SDS011;20879;55.668;37.858;2024-03-08T05:49:15;10.55;;;5.55;;
34673;SDS011;20879;55.668;37.858;2024-03-08T05:54:23;10.07;;;5.13;;
34673;SDS011;20879;55.668;37.858;2024-03-08T05:59:36;9.60;;;4.78;;
34673;SDS011;20879;55.668;37.858;2024-03-08T06:04:41;9.07;;;4.78;;
34673;SDS011;20879;55.668;37.858;2024-03-08T06:09:53;9.13;;;4.82;;
34673;SDS011;20879;55.668;37.858;2024-03-08T06:15:03;7.03;;;3.70;;
34673;SDS011;20879;55.668;37.858;2024-03-08T06:20:23;6.35;;;3.58;;
34673;SDS011;20879;55.668;37.858;2024-03-08T06:25:39;5.32;;;3.35;;
34673;SDS011;20879;55.668;37.858;2024-03-08T06:30:54;9.27;;;4.65;;
34673;SDS011;20879;55.668;37.858;2024-03-08T06:36:18;9.27;;;5.78;;
34673;SDS011;20879;55.668;37.858;2024-03-08T06:41:24;5.50;;;3.45;;
34673;SDS011;20879;55.668;37.858;2024-03-08T06:46:31;7.97;;;4.80;;
34673;SDS011;20879;55.668;37.858;2024-03-08T06:51:36;8.73;;;5.28;;
34673;SDS011;20879;55.668;37.858;2024-03-08T06:56:45;9.18;;;4.85;;
34673;SDS011;20879;55.668;37.858;2024-03-08T07:02:00;8.18;;;5.10;;
34673;SDS011;20879;55.668;37.858;2024-03-08T07:07:07;5.68;;;3.58;;
34673;SDS011;20879;55.668;37.858;2024-03-08T07:12:12;10.88;;;4.30;;
34673;SDS011;20879;55.668;37.858;2024-03-08T07:17:31;7.80;;;4.43;;
34673;SDS011;20879;55.668;37.858;2024-03-08T07:22:37;7.53;;;3.97;;
34673;SDS011;20879;55.668;37.858;2024-03-08T07:27:56;7.20;;;4.93;;
34673;SDS011;20879;55.668;37.858;2024-03-08T07:33:08;9.18;;;4.60;;
34673;SDS011;20879;55.668;37.858;2024-03-08T07:38:25;6.35;;;4.38;;
34673;SDS011;20879;55.668;37.858;2024-03-08T07:43:33;7.95;;;4.30;;
34673;SDS011;20879;55.668;37.858;2024-03-08T07:48:42;8.75;;;4.38;;
34673;SDS011;20879;55.668;37.858;2024-03-08T07:53:48;7.43;;;3.88;;
34673;SDS011;20879;55.668;37.858;2024-03-08T07:59:01;10.23;;;5.20;;
34673;SDS011;20879;55.668;37.858;2024-03-08T08:04:11;8.93;;;4.40;;
34673;SDS011;20879;55.668;37.858;2024-03-08T08:09:21;6.70;;;4.68;;
34673;SDS011;20879;55.668;37.858;2024-03-08T08:14:41;8.73;;;4.68;;
34673;SDS011;20879;55.668;37.858;2024-03-08T08:19:52;5.00;;;3.35;;
34673;SDS011;20879;55.668;37.858;2024-03-08T08:24:58;8.75;;;4.13;;
34673;SDS011;20879;55.668;37.858;2024-03-08T08:30:19;8.85;;;4.05;;
34673;SDS011;20879;55.668;37.858;2024-03-08T08:35:36;6.72;;;4.38;;
34673;SDS011;20879;55.668;37.858;2024-03-08T08:40:51;6.80;;;4.30;;
34673;SDS011;20879;55.668;37.858;2024-03-08T08:46:07;8.25;;;4.22;;
34673;SDS011;20879;55.668;37.858;2024-03-08T08:51:23;6.78;;;4.15;;
34673;SDS011;20879;55.668;37.858;2024-03-08T08:56:31;7.97;;;5.15;;
34673;SDS011;20879;55.668;37.858;2024-03-08T09:01:39;8.23;;;4.80;;
34673;SDS011;20879;55.668;37.858;2024-03-08T09:06:56;5.35;;;3.67;;
34673;SDS011;20879;55.668;37.858;2024-03-08T09:12:07;9.77;;;5.25;;
34673;SDS011;20879;55.668;37.858;2024-03-08T09:17:16;10.07;;;5.20;;
34673;SDS011;20879;55.668;37.858;2024-03-08T09:22:26;7.70;;;4.93;;
34673;SDS011;20879;55.668;37.858;2024-03-08T09:27:34;7.72;;;4.63;;
34673;SDS011;20879;55.668;37.858;2024-03-08T09:32:47;8.18;;;5.28;;
34673;SDS011;20879;55.668;37.858;2024-03-08T09:38:03;7.82;;;4.53;;
34673;SDS011;20879;55.668;37.858;2024-03-08T09:43:21;8.85;;;5.28;;
34673;SDS011;20879;55.668;37.858;2024-03-08T09:48:32;6.85;;;4.75;;
34673;SDS011;20879;55.668;37.858;2024-03-08T09:53:42;9.05;;;5.32;;
34673;SDS011;20879;55.668;37.858;2024-03-08T09:58:49;7.88;;;4.68;;
34673;SDS011;20879;55.668;37.858;2024-03-08T10:04:26;7.68;;;4.93;;
34673;SDS011;20879;55.668;37.858;2024-03-08T10:09:37;6.03;;;3.78;;
34673;SDS011;20879;55.668;37.858;2024-03-08T10:14:59;6.73;;;4.03;;
34673;SDS011;20879;55.668;37.858;2024-03-08T10:20:32;8.27;;;4.68;;
34673;SDS011;20879;55.668;37.858;2024-03-08T10:25:48;8.68;;;4.97;;
34673;SDS011;20879;55.668;37.858;2024-03-08T10:30:59;8.80;;;5.72;;
34673;SDS011;20879;55.668;37.858;2024-03-08T10:36:17;9.10;;;5.78;;
34673;SDS011;20879;55.668;37.858;2024-03-08T10:41:36;10.65;;;5.63;;
34673;SDS011;20879;55.668;37.858;2024-03-08T10:47:00;9.43;;;5.88;;
34673;SDS011;20879;55.668;37.858;2024-03-08T10:57:40;9.38;;;5.28;;
34673;SDS011;20879;55.668;37.858;2024-03-08T11:03:06;7.97;;;4.95;;
34673;SDS011;20879;55.668;37.858;2024-03-08T11:13:36;7.30;;;4.10;;
34673;SDS011;20879;55.668;37.858;2024-03-08T11:18:49;9.02;;;5.70;;
34673;SDS011;20879;55.668;37.858;2024-03-08T11:23:58;10.25;;;5.15;;
34673;SDS011;20879;55.668;37.858;2024-03-08T11:34:47;6.30;;;5.25;;
34673;SDS011;20879;55.668;37.858;2024-03-08T11:40:06;8.43;;;5.72;;
34673;SDS011;20879;55.668;37.858;2024-03-08T11:45:24;10.98;;;6.47;;
34673;SDS011;20879;55.668;37.858;2024-03-08T11:50:36;9.02;;;5.00;;
34673;SDS011;20879;55.668;37.858;2024-03-08T11:55:48;6.57;;;3.65;;
34673;SDS011;20879;55.668;37.858;2024-03-08T12:01:04;6.65;;;3.97;;
34673;SDS011;20879;55.668;37.858;2024-03-08T12:06:16;10.82;;;5.10;;
34673;SDS011;20879;55.668;37.858;2024-03-08T12:11:31;7.32;;;4.60;;
34673;SDS011;20879;55.668;37.858;2024-03-08T12:16:45;8.98;;;4.30;;
34673;SDS011;20879;55.668;37.858;2024-03-08T12:22:07;5.45;;;4.10;;
34673;SDS011;20879;55.668;37.858;2024-03-08T12:27:26;7.90;;;4.50;;
34673;SDS011;20879;55.668;37.858;2024-03-08T12:32:36;7.78;;;5.03;;
34673;SDS011;20879;55.668;37.858;2024-03-08T12:58:12;11.00;;;5.93;;
34673;SDS011;20879;55.668;37.858;2024-03-08T13:03:21;9.98;;;5.50;;
34673;SDS011;20879;55.668;37.858;2024-03-08T13:08:27;7.30;;;4.95;;
34673;SDS011;20879;55.668;37.858;2024-03-08T13:13:47;9.77;;;5.85;;
34673;SDS011;20879;55.668;37.858;2024-03-08T13:19:03;10.05;;;5.32;;
34673;SDS011;20879;55.668;37.858;2024-03-08T13:24:16;5.63;;;3.45;;
34673;SDS011;20879;55.668;37.858;2024-03-08T13:29:25;5.95;;;3.72;;
34673;SDS011;20879;55.668;37.858;2024-03-08T13:34:33;7.82;;;4.50;;
34673;SDS011;20879;55.668;37.858;2024-03-08T13:39:52;5.40;;;3.80;;
34673;SDS011;20879;55.668;37.858;2024-03-08T13:45:09;7.60;;;4.72;;
34673;SDS011;20879;55.668;37.858;2024-03-08T13:50:23;7.82;;;4.72;;
34673;SDS011;20879;55.668;37.858;2024-03-08T13:55:32;7.35;;;4.45;;
34673;SDS011;20879;55.668;37.858;2024-03-08T14:00:40;8.98;;;4.13;;
34673;SDS011;20879;55.668;37.858;2024-03-08T14:05:58;7.80;;;3.72;;
34673;SDS011;20879;55.668;37.858;2024-03-08T14:11:06;4.57;;;3.03;;
34673;SDS011;20879;55.668;37.858;2024-03-08T14:16:16;5.10;;;2.90;;
34673;SDS011;20879;55.668;37.858;2024-03-08T14:21:30;6.87;;;3.20;;
34673;SDS011;20879;55.668;37.858;2024-03-08T14:26:37;7.22;;;4.68;;
34673;SDS011;20879;55.668;37.858;2024-03-08T14:31:50;8.30;;;3.95;;
34673;SDS011;20879;55.668;37.858;2024-03-08T14:37:02;8.25;;;3.95;;
34673;SDS011;20879;55.668;37.858;2024-03-08T14:42:16;5.88;;;3.50;;
34673;SDS011;20879;55.668;37.858;2024-03-08T14:47:33;5.47;;;2.72;;
34673;SDS011;20879;55.668;37.858;2024-03-08T14:52:40;8.02;;;4.15;;
34673;SDS011;20879;55.668;37.858;2024-03-08T14:57:56;5.93;;;3.22;;
34673;SDS011;20879;55.668;37.858;2024-03-08T15:03:08;8.18;;;4.32;;
34673;SDS011;20879;55.668;37.858;2024-03-08T15:08:27;5.50;;;3.35;;
34673;SDS011;20879;55.668;37.858;2024-03-08T15:13:44;5.07;;;2.70;;
34673;SDS011;20879;55.668;37.858;2024-03-08T15:19:02;6.85;;;3.97;;
34673;SDS011;20879;55.668;37.858;2024-03-08T15:24:12;5.97;;;4.20;;
34673;SDS011;20879;55.668;37.858;2024-03-08T15:29:29;6.03;;;3.30;;
34673;SDS011;20879;55.668;37.858;2024-03-08T15:34:43;7.53;;;3.35;;
34673;SDS011;20879;55.668;37.858;2024-03-08T15:39:53;6.43;;;3.83;;
34673;SDS011;20879;55.668;37.858;2024-03-08T15:45:06;6.32;;;3.28;;
34673;SDS011;20879;55.668;37.858;2024-03-08T15:50:22;6.20;;;4.13;;
34673;SDS011;20879;55.668;37.858;2024-03-08T15:55:34;6.50;;;3.78;;
34673;SDS011;20879;55.668;37.858;2024-03-08T16:00:46;7.38;;;3.83;;
34673;SDS011;20879;55.668;37.858;2024-03-08T16:05:55;6.55;;;3.70;;
34673;SDS011;20879;55.668;37.858;2024-03-08T16:11:01;6.75;;;3.90;;
34673;SDS011;20879;55.668;37.858;2024-03-08T16:16:16;5.43;;;2.50;;
34673;SDS011;20879;55.668;37.858;2024-03-08T16:21:27;8.35;;;4.15;;
34673;SDS011;20879;55.668;37.858;2024-03-08T16:31:41;5.80;;;2.78;;
34673;SDS011;20879;55.668;37.858;2024-03-08T16:36:57;10.32;;;4.00;;
34673;SDS011;20879;55.668;37.858;2024-03-08T16:42:12;7.30;;;3.97;;
34673;SDS011;20879;55.668;37.858;2024-03-08T16:47:16;5.05;;;2.75;;
34673;SDS011;20879;55.668;37.858;2024-03-08T16:52:27;7.05;;;3.53;;
34673;SDS011;20879;55.668;37.858;2024-03-08T16:57:38;6.97;;;3.15;;
34673;SDS011;20879;55.668;37.858;2024-03-08T17:02:48;7.65;;;3.70;;
34673;SDS011;20879;55.668;37.858;2024-03-08T17:08:07;6.95;;;3.33;;
34673;SDS011;20879;55.668;37.858;2024-03-08T17:13:19;7.90;;;4.35;;
34673;SDS011;20879;55.668;37.858;2024-03-08T17:18:29;10.82;;;3.95;;
34673;SDS011;20879;55.668;37.858;2024-03-08T17:23:38;7.15;;;3.63;;
34673;SDS011;20879;55.668;37.858;2024-03-08T17:34:07;5.85;;;2.70;;
34673;SDS011;20879;55.668;37.858;2024-03-08T17:39:24;6.63;;;3.05;;
34673;SDS011;20879;55.668;37.858;2024-03-08T17:44:44;5.40;;;2.75;;
34673;SDS011;20879;55.668;37.858;2024-03-08T17:49:49;4.43;;;2.92;;
34673;SDS011;20879;55.668;37.858;2024-03-08T17:54:57;6.00;;;3.17;;
34673;SDS011;20879;55.668;37.858;2024-03-08T18:00:08;7.10;;;3.25;;
34673;SDS011;20879;55.668;37.858;2024-03-08T18:05:29;6.45;;;3.90;;
34673;SDS011;20879;55.668;37.858;2024-03-08T18:10:37;8.48;;;3.88;;
34673;SDS011;20879;55.668;37.858;2024-03-08T18:15:55;4.85;;;3.42;;
34673;SDS011;20879;55.668;37.858;2024-03-08T18:21:03;6.25;;;3.53;;
34673;SDS011;20879;55.668;37.858;2024-03-08T18:26:13;4.63;;;2.60;;
34673;SDS011;20879;55.668;37.858;2024-03-08T18:31:21;6.60;;;3.58;;
34673;SDS011;20879;55.668;37.858;2024-03-08T18:36:27;5.22;;;2.20;;
34673;SDS011;20879;55.668;37.858;2024-03-08T18:41:45;4.43;;;2.90;;
34673;SDS011;20879;55.668;37.858;2024-03-08T18:46:51;4.40;;;3.10;;
34673;SDS011;20879;55.668;37.858;2024-03-08T18:51:58;3.58;;;2.83;;
34673;SDS011;20879;55.668;37.858;2024-03-08T18:57:06;5.75;;;2.80;;
34673;SDS011;20879;55.668;37.858;2024-03-08T19:02:17;5.45;;;2.78;;
34673;SDS011;20879;55.668;37.858;2024-03-08T19:07:23;4.78;;;2.30;;
34673;SDS011;20879;55.668;37.858;2024-03-08T19:12:32;2.78;;;1.88;;
34673;SDS011;20879;55.668;37.858;2024-03-08T19:17:41;3.53;;;2.05;;
34673;SDS011;20879;55.668;37.858;2024-03-08T19:22:48;3.13;;;2.15;;
34673;SDS011;20879;55.668;37.858;2024-03-08T19:27:58;1.67;;;1.40;;
34673;SDS011;20879;55.668;37.858;2024-03-08T19:33:13;3.40;;;1.75;;
34673;SDS011;20879;55.668;37.858;2024-03-08T19:38:24;2.60;;;1.60;;
34673;SDS011;20879;55.668;37.858;2024-03-08T19:43:38;3.35;;;1.75;;
34673;SDS011;20879;55.668;37.858;2024-03-08T19:48:50;2.63;;;1.85;;
34673;SDS011;20879;55.668;37.858;2024-03-08T19:54:02;2.33;;;1.60;;
34673;SDS011;20879;55.668;37.858;2024-03-08T19:59:11;1.80;;;1.23;;
34673;SDS011;20879;55.668;37.858;2024-03-08T20:04:34;2.03;;;1.30;;
34673;SDS011;20879;55.668;37.858;2024-03-08T20:09:45;3.13;;;1.30;;
34673;SDS011;20879;55.668;37.858;2024-03-08T20:14:55;2.25;;;1.38;;
34673;SDS011;20879;55.668;37.858;2024-03-08T20:20:01;2.00;;;1.08;;
34673;SDS011;20879;55.668;37.858;2024-03-08T20:25:12;1.83;;;1.30;;
34673;SDS011;20879;55.668;37.858;2024-03-08T20:30:33;1.63;;;0.90;;
34673;SDS011;20879;55.668;37.858;2024-03-08T20:35:42;2.13;;;1.30;;
34673;SDS011;20879;55.668;37.858;2024-03-08T20:40:49;2.80;;;1.40;;
34673;SDS011;20879;55.668;37.858;2024-03-08T20:46:04;2.72;;;1.60;;
34673;SDS011;20879;55.668;37.858;2024-03-08T20:51:11;1.60;;;0.98;;
34673;SDS011;20879;55.668;37.858;2024-03-08T20:56:25;2.42;;;1.10;;
34673;SDS011;20879;55.668;37.858;2024-03-08T21:01:37;1.15;;;0.82;;
34673;SDS011;20879;55.668;37.858;2024-03-08T21:06:44;1.80;;;1.10;;
34673;SDS011;20879;55.668;37.858;2024-03-08T21:11:51;1.30;;;1.10;;
34673;SDS011;20879;55.668;37.858;2024-03-08T21:22:11;1.55;;;1.00;;
34673;SDS011;20879;55.668;37.858;2024-03-08T21:27:30;1.90;;;1.23;;
34673;SDS011;20879;55.668;37.858;2024-03-08T21:32:44;1.15;;;1.00;;
34673;SDS011;20879;55.668;37.858;2024-03-08T21:37:56;1.20;;;1.10;;
34673;SDS011;20879;55.668;37.858;2024-03-08T21:43:11;1.88;;;1.05;;
34673;SDS011;20879;55.668;37.858;2024-03-08T21:48:25;1.33;;;0.90;;
34673;SDS011;20879;55.668;37.858;2024-03-08T21:53:42;1.50;;;0.98;;
34673;SDS011;20879;55.668;37.858;2024-03-08T21:58:47;1.65;;;0.82;;
34673;SDS011;20879;55.668;37.858;2024-03-08T22:03:57;1.67;;;0.95;;
34673;SDS011;20879;55.668;37.858;2024-03-08T22:09:11;1.60;;;0.98;;
34673;SDS011;20879;55.668;37.858;2024-03-08T22:14:30;1.17;;;0.90;;
34673;SDS011;20879;55.668;37.858;2024-03-08T22:24:54;1.77;;;0.80;;
34673;SDS011;20879;55.668;37.858;2024-03-08T22:30:10;1.08;;;0.80;;
34673;SDS011;20879;55.668;37.858;2024-03-08T22:35:24;1.23;;;0.73;;
34673;SDS011;20879;55.668;37.858;2024-03-08T22:40:37;1.70;;;1.23;;
34673;SDS011;20879;55.668;37.858;2024-03-08T22:45:44;2.30;;;1.20;;
34673;SDS011;20879;55.668;37.858;2024-03-08T22:51:01;1.48;;;1.10;;
34673;SDS011;20879;55.668;37.858;2024-03-08T22:56:09;1.60;;;1.10;;
34673;SDS011;20879;55.668;37.858;2024-03-08T23:01:17;1.20;;;1.00;;
34673;SDS011;20879;55.668;37.858;2024-03-08T23:06:38;1.15;;;0.98;;
34673;SDS011;20879;55.668;37.858;2024-03-08T23:11:52;1.10;;;1.00;;
34673;SDS011;20879;55.668;37.858;2024-03-08T23:17:04;3.08;;;1.30;;
34673;SDS011;20879;55.668;37.858;2024-03-08T23:27:31;3.00;;;1.30;;
34673;SDS011;20879;55.668;37.858;2024-03-08T23:32:37;1.63;;;1.10;;
34673;SDS011;20879;55.668;37.858;2024-03-08T23:37:50;1.45;;;0.88;;
34673;SDS011;20879;55.668;37.858;2024-03-08T23:43:01;2.55;;;0.95;;
34673;SDS011;20879;55.668;37.858;2024-03-08T23:48:17;1.75;;;0.95;;
34673;SDS011;20879;55.668;37.858;2024-03-08T23:53:29;1.60;;;0.98;;
34673;SDS011;20879;55.668;37.858;2024-03-08T23:58:41;1.75;;;1.08;;
